sensor_id;sensor_type;location;lat;lon;timestamp;P1;durP1;ratioP1;P2;durP2;ratioP2
3881;SDS011;1956;53.482;10.238;2022-12-29T00:04:34;4.17;;;3.77;;
3881;SDS011;1956;53.482;10.238;2022-12-29T00:09:34;5.90;;;3.70;;
3881;SDS011;1956;53.482;10.238;2022-12-29T00:14:35;4.47;;;4.10;;
3881;SDS011;1956;53.482;10.238;2022-12-29T00:19:54;4.20;;;3.90;;
3881;SDS011;1956;53.482;10.238;2022-12-29T00:25:13;5.57;;;4.47;;
3881;SDS011;1956;53.482;10.238;2022-12-29T00:30:31;4.97;;;3.70;;
3881;SDS011;1956;53.482;10.238;2022-12-29T00:35:51;4.70;;;4.27;;
3881;SDS011;1956;53.482;10.238;2022-12-29T00:40:53;4.20;;;3.80;;
3881;SDS011;1956;53.482;10.238;2022-12-29T00:46:12;5.97;;;3.70;;
3881;SDS011;1956;53.482;10.238;2022-12-29T00:51:12;4.13;;;3.67;;
3881;SDS011;1956;53.482;10.238;2022-12-29T00:56:12;4.60;;;3.87;;
3881;SDS011;1956;53.482;10.238;2022-12-29T01:01:13;4.73;;;3.90;;
3881;SDS011;1956;53.482;10.238;2022-12-29T01:06:13;5.93;;;4.40;;
3881;SDS011;1956;53.482;10.238;2022-12-29T01:11:14;5.17;;;4.67;;
3881;SDS011;1956;53.482;10.238;2022-12-29T01:16:14;4.40;;;3.43;;
3881;SDS011;1956;53.482;10.238;2022-12-29T01:21:15;4.67;;;4.27;;
3881;SDS011;1956;53.482;10.238;2022-12-29T01:26:15;5.23;;;4.37;;
3881;SDS011;1956;53.482;10.238;2022-12-29T01:31:16;4.90;;;4.50;;
3881;SDS011;1956;53.482;10.238;2022-12-29T01:36:18;4.83;;;4.40;;
3881;SDS011;1956;53.482;10.238;2022-12-29T01:41:19;7.17;;;4.47;;
3881;SDS011;1956;53.482;10.238;2022-12-29T01:46:33;4.80;;;4.40;;
3881;SDS011;1956;53.482;10.238;2022-12-29T01:51:36;4.87;;;4.47;;
3881;SDS011;1956;53.482;10.238;2022-12-29T01:56:39;4.43;;;3.97;;
3881;SDS011;1956;53.482;10.238;2022-12-29T02:01:39;4.93;;;4.40;;
3881;SDS011;1956;53.482;10.238;2022-12-29T02:06:47;4.50;;;4.07;;
3881;SDS011;1956;53.482;10.238;2022-12-29T02:11:52;4.40;;;4.00;;
3881;SDS011;1956;53.482;10.238;2022-12-29T02:24:29;4.27;;;3.87;;
3881;SDS011;1956;53.482;10.238;2022-12-29T02:29:39;3.87;;;3.40;;
3881;SDS011;1956;53.482;10.238;2022-12-29T02:34:57;4.87;;;4.47;;
3881;SDS011;1956;53.482;10.238;2022-12-29T02:39:49;6.43;;;3.67;;
3881;SDS011;1956;53.482;10.238;2022-12-29T02:45:34;7.03;;;4.03;;
3881;SDS011;1956;53.482;10.238;2022-12-29T02:50:50;6.97;;;4.90;;
3881;SDS011;1956;53.482;10.238;2022-12-29T02:55:55;5.20;;;3.93;;
3881;SDS011;1956;53.482;10.238;2022-12-29T03:06:52;3.73;;;3.40;;
3881;SDS011;1956;53.482;10.238;2022-12-29T03:11:59;4.87;;;4.00;;
3881;SDS011;1956;53.482;10.238;2022-12-29T03:17:14;8.90;;;3.67;;
3881;SDS011;1956;53.482;10.238;2022-12-29T03:22:21;3.40;;;3.20;;
3881;SDS011;1956;53.482;10.238;2022-12-29T03:27:36;3.80;;;3.50;;
3881;SDS011;1956;53.482;10.238;2022-12-29T03:32:58;3.60;;;3.30;;
3881;SDS011;1956;53.482;10.238;2022-12-29T03:38:09;3.47;;;3.17;;
3881;SDS011;1956;53.482;10.238;2022-12-29T03:43:12;7.60;;;3.47;;
3881;SDS011;1956;53.482;10.238;2022-12-29T03:48:13;3.23;;;2.83;;
3881;SDS011;1956;53.482;10.238;2022-12-29T03:53:13;7.73;;;3.57;;
3881;SDS011;1956;53.482;10.238;2022-12-29T03:58:13;4.67;;;2.67;;
3881;SDS011;1956;53.482;10.238;2022-12-29T04:03:14;2.73;;;2.53;;
3881;SDS011;1956;53.482;10.238;2022-12-29T04:08:14;3.10;;;2.73;;
3881;SDS011;1956;53.482;10.238;2022-12-29T04:13:15;3.10;;;2.50;;
3881;SDS011;1956;53.482;10.238;2022-12-29T04:18:15;2.13;;;2.03;;
3881;SDS011;1956;53.482;10.238;2022-12-29T04:23:16;2.27;;;2.07;;
3881;SDS011;1956;53.482;10.238;2022-12-29T04:28:16;2.07;;;1.97;;
3881;SDS011;1956;53.482;10.238;2022-12-29T04:33:17;1.80;;;1.70;;
3881;SDS011;1956;53.482;10.238;2022-12-29T04:38:17;2.27;;;2.17;;
3881;SDS011;1956;53.482;10.238;2022-12-29T04:43:18;2.50;;;1.80;;
3881;SDS011;1956;53.482;10.238;2022-12-29T04:48:24;1.90;;;1.80;;
3881;SDS011;1956;53.482;10.238;2022-12-29T04:53:24;2.23;;;1.80;;
3881;SDS011;1956;53.482;10.238;2022-12-29T04:58:25;3.30;;;2.13;;
3881;SDS011;1956;53.482;10.238;2022-12-29T05:03:25;2.10;;;1.97;;
3881;SDS011;1956;53.482;10.238;2022-12-29T05:08:25;2.08;;;1.98;;
3881;SDS011;1956;53.482;10.238;2022-12-29T05:13:26;3.93;;;1.47;;
3881;SDS011;1956;53.482;10.238;2022-12-29T05:18:26;2.10;;;2.00;;
3881;SDS011;1956;53.482;10.238;2022-12-29T05:23:26;1.83;;;1.73;;
3881;SDS011;1956;53.482;10.238;2022-12-29T05:28:27;3.60;;;1.60;;
3881;SDS011;1956;53.482;10.238;2022-12-29T05:33:27;2.20;;;2.00;;
3881;SDS011;1956;53.482;10.238;2022-12-29T05:38:27;2.07;;;1.97;;
3881;SDS011;1956;53.482;10.238;2022-12-29T05:43:28;2.23;;;2.00;;
3881;SDS011;1956;53.482;10.238;2022-12-29T05:48:28;2.43;;;2.33;;
3881;SDS011;1956;53.482;10.238;2022-12-29T05:53:29;2.37;;;2.10;;
3881;SDS011;1956;53.482;10.238;2022-12-29T05:58:29;1.93;;;1.80;;
3881;SDS011;1956;53.482;10.238;2022-12-29T06:03:29;2.37;;;2.17;;
3881;SDS011;1956;53.482;10.238;2022-12-29T06:08:30;2.13;;;1.63;;
3881;SDS011;1956;53.482;10.238;2022-12-29T06:13:30;1.77;;;1.67;;
3881;SDS011;1956;53.482;10.238;2022-12-29T06:18:30;1.73;;;1.63;;
3881;SDS011;1956;53.482;10.238;2022-12-29T06:23:31;1.80;;;1.63;;
3881;SDS011;1956;53.482;10.238;2022-12-29T06:28:31;4.60;;;1.70;;
3881;SDS011;1956;53.482;10.238;2022-12-29T06:33:32;1.77;;;1.67;;
3881;SDS011;1956;53.482;10.238;2022-12-29T06:38:32;1.73;;;1.53;;
3881;SDS011;1956;53.482;10.238;2022-12-29T06:43:32;4.43;;;1.93;;
3881;SDS011;1956;53.482;10.238;2022-12-29T06:48:33;1.40;;;1.30;;
3881;SDS011;1956;53.482;10.238;2022-12-29T06:53:34;1.33;;;1.23;;
3881;SDS011;1956;53.482;10.238;2022-12-29T06:58:34;2.73;;;1.80;;
3881;SDS011;1956;53.482;10.238;2022-12-29T07:03:35;2.97;;;1.63;;
3881;SDS011;1956;53.482;10.238;2022-12-29T07:08:35;5.17;;;2.67;;
3881;SDS011;1956;53.482;10.238;2022-12-29T07:13:35;2.63;;;2.43;;
3881;SDS011;1956;53.482;10.238;2022-12-29T07:18:36;4.07;;;2.30;;
3881;SDS011;1956;53.482;10.238;2022-12-29T07:23:36;6.50;;;2.40;;
3881;SDS011;1956;53.482;10.238;2022-12-29T07:28:36;1.90;;;1.80;;
3881;SDS011;1956;53.482;10.238;2022-12-29T07:33:38;4.17;;;2.30;;
3881;SDS011;1956;53.482;10.238;2022-12-29T07:38:38;2.17;;;1.90;;
3881;SDS011;1956;53.482;10.238;2022-12-29T07:43:38;2.43;;;1.90;;
3881;SDS011;1956;53.482;10.238;2022-12-29T07:48:39;3.57;;;2.07;;
3881;SDS011;1956;53.482;10.238;2022-12-29T07:53:39;2.67;;;2.10;;
3881;SDS011;1956;53.482;10.238;2022-12-29T07:58:39;2.70;;;1.53;;
3881;SDS011;1956;53.482;10.238;2022-12-29T08:03:41;1.73;;;1.43;;
3881;SDS011;1956;53.482;10.238;2022-12-29T08:08:42;1.77;;;1.67;;
3881;SDS011;1956;53.482;10.238;2022-12-29T08:13:42;1.60;;;1.50;;
3881;SDS011;1956;53.482;10.238;2022-12-29T08:18:43;1.40;;;1.33;;
3881;SDS011;1956;53.482;10.238;2022-12-29T08:23:44;2.67;;;1.50;;
3881;SDS011;1956;53.482;10.238;2022-12-29T08:28:44;2.10;;;2.00;;
3881;SDS011;1956;53.482;10.238;2022-12-29T08:33:44;2.00;;;1.33;;
3881;SDS011;1956;53.482;10.238;2022-12-29T08:38:45;1.60;;;1.50;;
3881;SDS011;1956;53.482;10.238;2022-12-29T08:43:48;1.30;;;1.20;;
3881;SDS011;1956;53.482;10.238;2022-12-29T08:48:49;2.00;;;1.40;;
3881;SDS011;1956;53.482;10.238;2022-12-29T08:53:49;1.67;;;1.20;;
3881;SDS011;1956;53.482;10.238;2022-12-29T08:58:51;10.07;;;1.30;;
3881;SDS011;1956;53.482;10.238;2022-12-29T09:03:52;1.40;;;1.30;;
3881;SDS011;1956;53.482;10.238;2022-12-29T09:08:54;3.93;;;1.50;;
3881;SDS011;1956;53.482;10.238;2022-12-29T09:13:55;1.67;;;1.07;;
3881;SDS011;1956;53.482;10.238;2022-12-29T09:18:55;5.90;;;1.40;;
3881;SDS011;1956;53.482;10.238;2022-12-29T09:23:56;1.93;;;1.20;;
3881;SDS011;1956;53.482;10.238;2022-12-29T09:28:56;2.40;;;0.93;;
3881;SDS011;1956;53.482;10.238;2022-12-29T09:33:57;3.07;;;1.00;;
3881;SDS011;1956;53.482;10.238;2022-12-29T09:38:57;3.27;;;1.20;;
3881;SDS011;1956;53.482;10.238;2022-12-29T09:49:49;6.03;;;2.00;;
3881;SDS011;1956;53.482;10.238;2022-12-29T09:54:55;4.83;;;1.40;;
3881;SDS011;1956;53.482;10.238;2022-12-29T09:59:59;6.07;;;1.60;;
3881;SDS011;1956;53.482;10.238;2022-12-29T10:05:20;2.20;;;1.17;;
3881;SDS011;1956;53.482;10.238;2022-12-29T10:10:34;2.13;;;1.33;;
3881;SDS011;1956;53.482;10.238;2022-12-29T10:21:05;1.83;;;1.20;;
3881;SDS011;1956;53.482;10.238;2022-12-29T10:26:14;1.67;;;1.30;;
3881;SDS011;1956;53.482;10.238;2022-12-29T10:31:21;7.70;;;1.50;;
3881;SDS011;1956;53.482;10.238;2022-12-29T10:36:30;1.97;;;1.27;;
3881;SDS011;1956;53.482;10.238;2022-12-29T10:41:39;6.37;;;1.53;;
3881;SDS011;1956;53.482;10.238;2022-12-29T10:46:42;4.80;;;1.67;;
3881;SDS011;1956;53.482;10.238;2022-12-29T10:51:44;6.30;;;2.10;;
3881;SDS011;1956;53.482;10.238;2022-12-29T10:56:47;8.20;;;1.73;;
3881;SDS011;1956;53.482;10.238;2022-12-29T11:02:00;3.10;;;1.13;;
3881;SDS011;1956;53.482;10.238;2022-12-29T11:07:21;4.97;;;1.60;;
3881;SDS011;1956;53.482;10.238;2022-12-29T11:12:26;4.50;;;1.37;;
3881;SDS011;1956;53.482;10.238;2022-12-29T11:17:28;2.50;;;1.20;;
3881;SDS011;1956;53.482;10.238;2022-12-29T11:22:29;5.33;;;1.50;;
3881;SDS011;1956;53.482;10.238;2022-12-29T11:27:29;6.13;;;1.50;;
3881;SDS011;1956;53.482;10.238;2022-12-29T11:32:29;5.57;;;1.70;;
3881;SDS011;1956;53.482;10.238;2022-12-29T11:37:31;4.10;;;1.00;;
3881;SDS011;1956;53.482;10.238;2022-12-29T11:42:42;2.53;;;0.83;;
3881;SDS011;1956;53.482;10.238;2022-12-29T11:47:49;3.70;;;1.20;;
3881;SDS011;1956;53.482;10.238;2022-12-29T11:52:57;3.43;;;1.00;;
3881;SDS011;1956;53.482;10.238;2022-12-29T11:58:00;5.03;;;1.00;;
3881;SDS011;1956;53.482;10.238;2022-12-29T12:03:09;1.43;;;0.73;;
3881;SDS011;1956;53.482;10.238;2022-12-29T12:09:32;5.17;;;1.23;;
3881;SDS011;1956;53.482;10.238;2022-12-29T12:14:04;5.10;;;1.20;;
3881;SDS011;1956;53.482;10.238;2022-12-29T12:25:23;3.63;;;0.70;;
3881;SDS011;1956;53.482;10.238;2022-12-29T12:30:30;2.40;;;0.80;;
3881;SDS011;1956;53.482;10.238;2022-12-29T12:36:04;10.10;;;0.83;;
3881;SDS011;1956;53.482;10.238;2022-12-29T12:42:20;8.10;;;1.53;;
3881;SDS011;1956;53.482;10.238;2022-12-29T12:47:07;2.50;;;1.40;;
3881;SDS011;1956;53.482;10.238;2022-12-29T13:04:00;4.33;;;1.33;;
3881;SDS011;1956;53.482;10.238;2022-12-29T13:09:39;6.43;;;1.07;;
3881;SDS011;1956;53.482;10.238;2022-12-29T13:14:59;7.97;;;1.50;;
3881;SDS011;1956;53.482;10.238;2022-12-29T13:20:20;4.73;;;0.83;;
3881;SDS011;1956;53.482;10.238;2022-12-29T13:30:53;7.07;;;1.30;;
3881;SDS011;1956;53.482;10.238;2022-12-29T13:36:40;5.50;;;0.83;;
3881;SDS011;1956;53.482;10.238;2022-12-29T13:41:44;4.40;;;1.30;;
3881;SDS011;1956;53.482;10.238;2022-12-29T13:46:47;6.70;;;1.57;;
3881;SDS011;1956;53.482;10.238;2022-12-29T13:51:49;6.30;;;1.13;;
3881;SDS011;1956;53.482;10.238;2022-12-29T13:56:54;4.97;;;1.67;;
3881;SDS011;1956;53.482;10.238;2022-12-29T14:07:47;3.10;;;1.20;;
3881;SDS011;1956;53.482;10.238;2022-12-29T14:12:48;5.40;;;1.30;;
3881;SDS011;1956;53.482;10.238;2022-12-29T14:18:00;7.83;;;1.00;;
3881;SDS011;1956;53.482;10.238;2022-12-29T14:28:23;2.70;;;0.90;;
3881;SDS011;1956;53.482;10.238;2022-12-29T14:33:31;7.10;;;1.10;;
3881;SDS011;1956;53.482;10.238;2022-12-29T14:38:33;4.40;;;1.33;;
3881;SDS011;1956;53.482;10.238;2022-12-29T14:43:54;8.20;;;1.40;;
3881;SDS011;1956;53.482;10.238;2022-12-29T14:48:57;6.00;;;1.77;;
3881;SDS011;1956;53.482;10.238;2022-12-29T14:54:00;4.60;;;1.90;;
3881;SDS011;1956;53.482;10.238;2022-12-29T14:59:32;6.50;;;1.00;;
3881;SDS011;1956;53.482;10.238;2022-12-29T15:04:35;3.60;;;1.40;;
3881;SDS011;1956;53.482;10.238;2022-12-29T15:09:40;5.13;;;1.13;;
3881;SDS011;1956;53.482;10.238;2022-12-29T15:20:00;1.70;;;1.10;;
3881;SDS011;1956;53.482;10.238;2022-12-29T15:25:16;6.87;;;1.30;;
3881;SDS011;1956;53.482;10.238;2022-12-29T15:30:18;9.43;;;1.90;;
3881;SDS011;1956;53.482;10.238;2022-12-29T15:40:37;3.83;;;1.90;;
3881;SDS011;1956;53.482;10.238;2022-12-29T15:45:38;10.33;;;2.30;;
3881;SDS011;1956;53.482;10.238;2022-12-29T15:50:38;5.93;;;2.23;;
3881;SDS011;1956;53.482;10.238;2022-12-29T15:55:41;4.70;;;2.47;;
3881;SDS011;1956;53.482;10.238;2022-12-29T16:00:45;9.13;;;2.23;;
3881;SDS011;1956;53.482;10.238;2022-12-29T16:05:54;8.83;;;1.93;;
3881;SDS011;1956;53.482;10.238;2022-12-29T16:11:20;4.23;;;1.73;;
3881;SDS011;1956;53.482;10.238;2022-12-29T16:16:28;5.03;;;2.20;;
3881;SDS011;1956;53.482;10.238;2022-12-29T16:21:32;8.73;;;2.03;;
3881;SDS011;1956;53.482;10.238;2022-12-29T16:26:34;5.60;;;2.20;;
3881;SDS011;1956;53.482;10.238;2022-12-29T16:31:36;8.30;;;1.90;;
3881;SDS011;1956;53.482;10.238;2022-12-29T16:36:58;2.50;;;1.20;;
3881;SDS011;1956;53.482;10.238;2022-12-29T16:47:34;5.40;;;1.70;;
3881;SDS011;1956;53.482;10.238;2022-12-29T16:52:35;6.37;;;1.47;;
3881;SDS011;1956;53.482;10.238;2022-12-29T16:57:35;6.60;;;2.20;;
3881;SDS011;1956;53.482;10.238;2022-12-29T17:02:36;3.80;;;2.20;;
3881;SDS011;1956;53.482;10.238;2022-12-29T17:07:44;4.87;;;1.90;;
3881;SDS011;1956;53.482;10.238;2022-12-29T17:12:45;3.00;;;2.23;;
3881;SDS011;1956;53.482;10.238;2022-12-29T17:17:47;5.87;;;1.77;;
3881;SDS011;1956;53.482;10.238;2022-12-29T17:22:49;3.70;;;1.23;;
3881;SDS011;1956;53.482;10.238;2022-12-29T17:27:55;7.30;;;2.13;;
3881;SDS011;1956;53.482;10.238;2022-12-29T17:33:05;8.30;;;3.33;;
3881;SDS011;1956;53.482;10.238;2022-12-29T17:38:19;15.33;;;4.33;;
3881;SDS011;1956;53.482;10.238;2022-12-29T17:43:22;27.43;;;7.10;;
3881;SDS011;1956;53.482;10.238;2022-12-29T17:48:23;15.37;;;4.73;;
3881;SDS011;1956;53.482;10.238;2022-12-29T17:53:27;9.60;;;3.27;;
3881;SDS011;1956;53.482;10.238;2022-12-29T17:58:29;3.80;;;2.30;;
3881;SDS011;1956;53.482;10.238;2022-12-29T18:03:33;3.83;;;2.00;;
3881;SDS011;1956;53.482;10.238;2022-12-29T18:08:35;9.80;;;2.70;;
3881;SDS011;1956;53.482;10.238;2022-12-29T18:13:37;8.90;;;2.10;;
3881;SDS011;1956;53.482;10.238;2022-12-29T18:18:38;9.23;;;2.63;;
3881;SDS011;1956;53.482;10.238;2022-12-29T18:23:38;5.07;;;2.17;;
3881;SDS011;1956;53.482;10.238;2022-12-29T18:28:39;8.00;;;2.83;;
3881;SDS011;1956;53.482;10.238;2022-12-29T18:33:39;17.80;;;3.97;;
3881;SDS011;1956;53.482;10.238;2022-12-29T18:38:39;9.93;;;3.77;;
3881;SDS011;1956;53.482;10.238;2022-12-29T18:43:40;16.73;;;3.50;;
3881;SDS011;1956;53.482;10.238;2022-12-29T18:48:40;7.40;;;3.53;;
3881;SDS011;1956;53.482;10.238;2022-12-29T18:53:41;7.17;;;2.90;;
3881;SDS011;1956;53.482;10.238;2022-12-29T18:58:41;15.33;;;4.37;;
3881;SDS011;1956;53.482;10.238;2022-12-29T19:03:42;10.57;;;3.93;;
3881;SDS011;1956;53.482;10.238;2022-12-29T19:08:42;8.13;;;4.53;;
3881;SDS011;1956;53.482;10.238;2022-12-29T19:13:42;9.20;;;3.00;;
3881;SDS011;1956;53.482;10.238;2022-12-29T19:18:43;10.53;;;5.20;;
3881;SDS011;1956;53.482;10.238;2022-12-29T19:23:43;9.63;;;3.37;;
3881;SDS011;1956;53.482;10.238;2022-12-29T19:28:44;8.70;;;3.60;;
3881;SDS011;1956;53.482;10.238;2022-12-29T19:33:44;7.43;;;3.40;;
3881;SDS011;1956;53.482;10.238;2022-12-29T19:38:45;21.80;;;5.23;;
3881;SDS011;1956;53.482;10.238;2022-12-29T19:43:45;7.00;;;3.00;;
3881;SDS011;1956;53.482;10.238;2022-12-29T19:48:45;7.90;;;2.90;;
3881;SDS011;1956;53.482;10.238;2022-12-29T19:53:46;7.37;;;2.70;;
3881;SDS011;1956;53.482;10.238;2022-12-29T19:58:46;5.80;;;2.50;;
3881;SDS011;1956;53.482;10.238;2022-12-29T20:03:47;9.47;;;2.33;;
3881;SDS011;1956;53.482;10.238;2022-12-29T20:08:47;8.37;;;2.77;;
3881;SDS011;1956;53.482;10.238;2022-12-29T20:13:53;4.67;;;2.07;;
3881;SDS011;1956;53.482;10.238;2022-12-29T20:18:54;6.37;;;2.23;;
3881;SDS011;1956;53.482;10.238;2022-12-29T20:23:54;1.47;;;1.20;;
3881;SDS011;1956;53.482;10.238;2022-12-29T20:28:55;8.63;;;2.33;;
3881;SDS011;1956;53.482;10.238;2022-12-29T20:33:59;1.40;;;1.13;;
3881;SDS011;1956;53.482;10.238;2022-12-29T20:39:01;1.03;;;0.67;;
3881;SDS011;1956;53.482;10.238;2022-12-29T20:44:05;2.30;;;0.60;;
3881;SDS011;1956;53.482;10.238;2022-12-29T20:49:05;2.33;;;0.67;;
3881;SDS011;1956;53.482;10.238;2022-12-29T20:54:06;3.47;;;0.87;;
3881;SDS011;1956;53.482;10.238;2022-12-29T20:59:07;2.20;;;1.07;;
3881;SDS011;1956;53.482;10.238;2022-12-29T21:04:07;1.50;;;0.97;;
3881;SDS011;1956;53.482;10.238;2022-12-29T21:09:08;2.40;;;1.03;;
3881;SDS011;1956;53.482;10.238;2022-12-29T21:14:08;4.87;;;1.50;;
3881;SDS011;1956;53.482;10.238;2022-12-29T21:19:08;3.57;;;1.73;;
3881;SDS011;1956;53.482;10.238;2022-12-29T21:24:09;5.20;;;2.57;;
3881;SDS011;1956;53.482;10.238;2022-12-29T21:29:09;5.70;;;2.90;;
3881;SDS011;1956;53.482;10.238;2022-12-29T21:34:10;1.73;;;1.33;;
3881;SDS011;1956;53.482;10.238;2022-12-29T21:39:10;3.60;;;1.70;;
3881;SDS011;1956;53.482;10.238;2022-12-29T21:44:11;5.97;;;3.80;;
3881;SDS011;1956;53.482;10.238;2022-12-29T21:49:31;5.67;;;2.43;;
3881;SDS011;1956;53.482;10.238;2022-12-29T21:54:31;5.90;;;1.50;;
3881;SDS011;1956;53.482;10.238;2022-12-29T21:59:50;6.43;;;2.20;;
3881;SDS011;1956;53.482;10.238;2022-12-29T22:05:12;6.50;;;2.07;;
3881;SDS011;1956;53.482;10.238;2022-12-29T22:10:32;1.70;;;1.60;;
3881;SDS011;1956;53.482;10.238;2022-12-29T22:15:51;7.40;;;1.93;;
3881;SDS011;1956;53.482;10.238;2022-12-29T22:20:51;4.40;;;1.73;;
3881;SDS011;1956;53.482;10.238;2022-12-29T22:25:52;5.40;;;2.23;;
3881;SDS011;1956;53.482;10.238;2022-12-29T22:30:52;2.17;;;1.97;;
3881;SDS011;1956;53.482;10.238;2022-12-29T22:35:53;3.20;;;1.87;;
3881;SDS011;1956;53.482;10.238;2022-12-29T22:40:56;7.53;;;2.43;;
3881;SDS011;1956;53.482;10.238;2022-12-29T22:46:02;7.80;;;3.27;;
3881;SDS011;1956;53.482;10.238;2022-12-29T22:51:03;5.70;;;3.57;;
3881;SDS011;1956;53.482;10.238;2022-12-29T22:56:04;4.70;;;3.00;;
3881;SDS011;1956;53.482;10.238;2022-12-29T23:01:10;5.30;;;3.10;;
3881;SDS011;1956;53.482;10.238;2022-12-29T23:06:12;9.70;;;3.33;;
3881;SDS011;1956;53.482;10.238;2022-12-29T23:11:13;6.70;;;4.00;;
3881;SDS011;1956;53.482;10.238;2022-12-29T23:16:14;8.93;;;4.57;;
3881;SDS011;1956;53.482;10.238;2022-12-29T23:21:15;7.03;;;3.50;;
3881;SDS011;1956;53.482;10.238;2022-12-29T23:26:17;8.30;;;3.00;;
3881;SDS011;1956;53.482;10.238;2022-12-29T23:31:29;14.40;;;2.83;;
3881;SDS011;1956;53.482;10.238;2022-12-29T23:36:30;15.03;;;3.70;;
3881;SDS011;1956;53.482;10.238;2022-12-29T23:41:31;15.73;;;3.57;;
3881;SDS011;1956;53.482;10.238;2022-12-29T23:46:31;8.17;;;3.53;;
3881;SDS011;1956;53.482;10.238;2022-12-29T23:51:31;13.07;;;4.10;;
3881;SDS011;1956;53.482;10.238;2022-12-29T23:56:32;10.23;;;3.60;;
